Aviation Digital Data Service (ADDS)

Output produced by TAFs form (1001 UTC 23 April 2017)
found at http://www.aviationweather.gov/adds/tafs/
 
METAR text: ROMY 230900Z 04007KT 9999 SCT032 22/15 Q1014
Conditions at: ROMY (MIYAKOJIMA ISLAN, JP) observed 0900 UTC 23 April 2017
Temperature: 22.0°C (72°F)
Dewpoint: 15.0°C (59°F) [RH = 65%]
Pressure (altimeter): 29.94 inches Hg (1014.0 mb)
Winds: from the NE (40 degrees) at 8 MPH (7 knots; 3.6 m/s)
Visibility: 6 or more miles (10+ km)
Ceiling: at least 12,000 feet AGL
Clouds: scattered clouds at 3200 feet AGL
Weather: no significant weather observed at this time